createdAt,value
2018-05-26T00:00:00.973Z,27.40
2018-05-26T00:02:28.513Z,35.47
2018-05-26T00:04:55.968Z,32.17
2018-05-26T00:07:24.161Z,38.47
2018-05-26T00:09:51.640Z,40.53
2018-05-26T00:12:19.865Z,33.53
2018-05-26T00:14:47.332Z,35.93
2018-05-26T00:17:14.796Z,36.37
2018-05-26T00:19:42.884Z,33.10
2018-05-26T00:22:10.376Z,42.10
2018-05-26T00:24:37.824Z,40.83
2018-05-26T00:27:05.298Z,41.13
2018-05-26T00:29:32.761Z,40.77
2018-05-26T00:32:00.197Z,39.30
2018-05-26T00:34:27.664Z,50.03
2018-05-26T00:36:55.100Z,39.53
2018-05-26T00:39:22.564Z,47.97
2018-05-26T00:41:50.052Z,48.47
2018-05-26T00:44:18.268Z,44.13
2018-05-26T00:46:45.752Z,56.67
2018-05-26T00:49:13.956Z,59.37
2018-05-26T00:51:42.205Z,53.60
2018-05-26T00:54:09.648Z,66.07
2018-05-26T00:56:37.113Z,66.87
2018-05-26T00:59:04.557Z,71.40
2018-05-26T01:01:31.997Z,68.07
2018-05-26T01:03:59.472Z,68.60
2018-05-26T01:06:26.925Z,66.07
2018-05-26T01:08:54.388Z,72.63
2018-05-26T01:11:21.841Z,69.87
2018-05-26T01:13:49.316Z,78.50
2018-05-26T01:16:16.773Z,88.40
2018-05-26T01:18:44.240Z,85.80
2018-05-26T01:21:11.688Z,80.83
2018-05-26T01:23:39.150Z,93.10
2018-05-26T01:26:06.613Z,94.17
2018-05-26T01:28:34.044Z,86.90
2018-05-26T01:31:01.524Z,88.33
2018-05-26T01:33:28.973Z,89.10
2018-05-26T01:35:56.449Z,95.00
2018-05-26T01:38:23.889Z,92.17
2018-05-26T01:40:51.353Z,85.20
2018-05-26T01:43:18.808Z,92.93
2018-05-26T01:45:46.256Z,77.17
2018-05-26T01:48:13.720Z,81.60
2018-05-26T01:50:41.172Z,72.33
2018-05-26T01:53:08.632Z,85.13
2018-05-26T01:55:36.094Z,92.57
2018-05-26T01:58:03.545Z,86.90
2018-05-26T02:00:31.001Z,85.73
2018-05-26T02:02:58.444Z,81.83
2018-05-26T02:05:25.917Z,79.93
2018-05-26T02:07:53.404Z,87.13
2018-05-26T02:10:21.660Z,80.57
2018-05-26T02:12:49.115Z,65.53
2018-05-26T02:15:16.656Z,76.40
2018-05-26T02:17:44.933Z,76.87
2018-05-26T02:20:12.409Z,65.57
2018-05-26T02:22:39.889Z,73.90
2018-05-26T02:25:08.144Z,68.63
2018-05-26T02:27:35.628Z,69.00
2018-05-26T02:30:03.929Z,61.57
2018-05-26T02:32:31.424Z,61.03
2018-05-26T02:34:58.893Z,67.10
2018-05-26T02:37:26.371Z,71.13
2018-05-26T02:39:54.629Z,53.87
2018-05-26T02:42:22.105Z,70.27
2018-05-26T02:44:49.569Z,64.57
2018-05-26T02:47:17.063Z,61.70
2018-05-26T02:49:44.532Z,62.20
2018-05-26T02:52:12.045Z,67.47
2018-05-26T02:54:40.309Z,64.37
2018-05-26T02:57:08.556Z,66.73
2018-05-26T02:59:36.045Z,55.83
2018-05-26T03:02:04.268Z,63.00
2018-05-26T03:04:37.448Z,65.13
2018-05-26T03:07:10.618Z,64.37
2018-05-26T03:09:43.703Z,62.73
2018-05-26T03:12:16.987Z,63.53
2018-05-26T03:14:46.941Z,61.63
2018-05-26T03:17:16.905Z,62.90
2018-05-26T03:19:45.179Z,56.57
2018-05-26T03:22:13.404Z,56.37
2018-05-26T03:24:40.915Z,61.60
2018-05-26T03:27:09.141Z,55.10
2018-05-26T03:29:36.620Z,53.40
2018-05-26T03:32:04.104Z,52.73
2018-05-26T03:34:32.559Z,53.27
2018-05-26T03:37:00.021Z,56.10
2018-05-26T03:39:27.487Z,49.53
2018-05-26T03:41:54.972Z,49.43
2018-05-26T03:44:22.449Z,46.77
2018-05-26T03:46:49.949Z,50.00
2018-05-26T03:49:17.404Z,46.43
2018-05-26T03:51:44.888Z,43.57
2018-05-26T03:54:12.353Z,47.07
2018-05-26T03:56:51.577Z,45.27
2018-05-26T04:02:15.552Z,38.13
2018-05-26T04:04:43.008Z,43.77
2018-05-26T04:07:10.489Z,37.53
2018-05-26T04:09:38.720Z,32.70
2018-05-26T04:12:06.219Z,37.27
2018-05-26T04:14:34.513Z,34.23
2018-05-26T04:17:02.008Z,31.47
2018-05-26T04:19:29.468Z,34.47
2018-05-26T04:21:56.949Z,32.47
2018-05-26T04:24:24.787Z,32.13
2018-05-26T04:26:52.260Z,31.27
2018-05-26T04:29:19.733Z,32.23
2018-05-26T04:31:47.229Z,28.83
2018-05-26T04:34:14.789Z,28.63
2018-05-26T04:36:42.256Z,25.87
2018-05-26T04:39:09.736Z,25.93
2018-05-26T04:41:37.201Z,25.37
2018-05-26T04:44:04.686Z,20.77
2018-05-26T04:46:32.136Z,28.10
2018-05-26T04:49:00.394Z,20.27
2018-05-26T04:51:27.872Z,21.13
2018-05-26T04:53:56.121Z,22.77
2018-05-26T04:56:23.576Z,21.70
2018-05-26T04:58:51.069Z,20.03
2018-05-26T05:01:19.316Z,22.73
2018-05-26T05:03:46.778Z,22.43
2018-05-26T05:06:14.258Z,21.07
2018-05-26T05:08:41.708Z,20.80
2018-05-26T05:11:09.965Z,17.70
2018-05-26T05:13:37.424Z,21.53
2018-05-26T05:16:04.905Z,20.17
2018-05-26T05:18:33.116Z,18.73
2018-05-26T05:21:00.669Z,20.83
2018-05-26T05:23:28.168Z,16.30
2018-05-26T05:25:55.656Z,16.90
2018-05-26T05:28:23.880Z,19.13
2018-05-26T05:30:52.139Z,18.97
2018-05-26T05:33:19.608Z,20.93
2018-05-26T05:35:47.105Z,15.03
2018-05-26T05:38:14.604Z,23.20
2018-05-26T05:40:42.081Z,16.63
2018-05-26T05:43:09.535Z,17.90
2018-05-26T05:45:37.050Z,14.77
2018-05-26T05:48:05.272Z,18.07
2018-05-26T05:50:32.759Z,16.80
2018-05-26T05:53:00.216Z,19.10
2018-05-26T05:55:27.717Z,17.97
2018-05-26T05:57:55.185Z,21.07
2018-05-26T06:00:22.672Z,20.63
2018-05-26T06:02:50.904Z,16.77
2018-05-26T06:05:18.417Z,15.60
2018-05-26T06:07:45.885Z,15.47
2018-05-26T06:10:13.364Z,16.53
2018-05-26T06:12:41.633Z,12.23
2018-05-26T06:15:09.940Z,17.30
2018-05-26T06:17:38.148Z,18.23
2018-05-26T06:20:06.392Z,18.33
2018-05-26T06:22:33.876Z,17.60
2018-05-26T06:25:01.374Z,16.53
2018-05-26T06:27:29.589Z,19.50
2018-05-26T06:29:57.093Z,15.70
2018-05-26T06:32:24.554Z,11.87
2018-05-26T06:34:52.777Z,15.93
2018-05-26T06:37:20.327Z,14.83
2018-05-26T06:39:50.752Z,14.70
2018-05-26T06:42:18.233Z,12.47
2018-05-26T06:44:45.734Z,18.03
2018-05-26T06:47:13.952Z,11.80
2018-05-26T06:49:41.476Z,11.07
2018-05-26T06:52:09.716Z,11.87
2018-05-26T06:54:37.164Z,12.27
2018-05-26T06:57:04.717Z,9.20
2018-05-26T06:59:32.188Z,7.80
2018-05-26T07:01:59.652Z,10.30
2018-05-26T07:04:27.128Z,9.47
2018-05-26T07:06:55.373Z,10.67
2018-05-26T07:09:22.877Z,7.67
2018-05-26T07:11:51.137Z,15.10
2018-05-26T07:14:18.654Z,7.03
2018-05-26T07:16:46.165Z,7.87
2018-05-26T07:19:13.669Z,6.80
2018-05-26T07:21:41.156Z,6.20
2018-05-26T07:24:08.692Z,10.43
2018-05-26T07:26:36.195Z,7.57
2018-05-26T07:29:04.428Z,9.30
2018-05-26T07:31:31.890Z,6.50
2018-05-26T07:33:59.341Z,8.90
2018-05-26T07:36:26.865Z,6.73
2018-05-26T07:38:54.331Z,8.67
2018-05-26T07:41:21.804Z,6.23
2018-05-26T07:43:49.276Z,8.97
2018-05-26T07:46:16.877Z,8.73
2018-05-26T07:48:44.372Z,7.20
2018-05-26T07:51:12.177Z,6.13
2018-05-26T07:53:39.666Z,5.20
2018-05-26T07:56:07.885Z,7.63
2018-05-26T07:58:35.577Z,7.17
2018-05-26T08:01:03.041Z,7.07
2018-05-26T08:03:30.533Z,6.67
2018-05-26T08:05:57.993Z,6.83
2018-05-26T08:08:25.469Z,9.53
2018-05-26T08:10:52.926Z,7.17
2018-05-26T08:13:20.411Z,4.63
2018-05-26T08:15:47.901Z,6.53
2018-05-26T08:18:16.205Z,11.40
2018-05-26T08:20:43.679Z,7.00
2018-05-26T08:23:11.171Z,7.00
2018-05-26T08:25:38.657Z,7.70
2018-05-26T08:28:06.156Z,6.67
2018-05-26T08:30:34.419Z,5.70
2018-05-26T08:33:01.893Z,7.07
2018-05-26T08:35:29.356Z,5.97
2018-05-26T08:37:56.860Z,7.43
2018-05-26T08:40:24.313Z,6.87
2018-05-26T08:42:51.806Z,6.97
2018-05-26T08:45:19.281Z,13.07
2018-05-26T08:47:46.760Z,9.10
2018-05-26T08:50:14.244Z,6.70
2018-05-26T08:52:42.581Z,6.53
2018-05-26T08:55:10.060Z,6.37
2018-05-26T08:57:37.544Z,5.50
2018-05-26T09:00:05.021Z,6.85
2018-05-26T09:02:32.510Z,6.53
2018-05-26T09:04:59.992Z,7.00
2018-05-26T09:07:28.313Z,6.97
2018-05-26T09:09:55.773Z,7.62
2018-05-26T09:12:24.132Z,6.55
2018-05-26T09:14:51.658Z,5.12
2018-05-26T09:17:19.144Z,4.40
2018-05-26T09:19:46.621Z,4.65
2018-05-26T09:22:14.124Z,6.68
2018-05-26T09:24:41.585Z,9.80
2018-05-26T09:27:09.864Z,8.65
2018-05-26T09:29:37.370Z,7.40
2018-05-26T09:32:04.918Z,4.18
2018-05-26T09:34:32.420Z,7.30
2018-05-26T09:36:59.869Z,6.65
2018-05-26T09:39:27.821Z,7.85
2018-05-26T09:41:55.282Z,6.45
2018-05-26T09:44:22.760Z,6.97
2018-05-26T09:46:50.280Z,6.95
2018-05-26T09:49:17.744Z,6.68
2018-05-26T09:51:45.224Z,4.78
2018-05-26T09:54:12.684Z,5.25
2018-05-26T09:56:40.156Z,9.77
2018-05-26T09:59:07.607Z,5.65
2018-05-26T10:01:35.080Z,7.95
2018-05-26T10:04:02.570Z,7.12
2018-05-26T10:06:30.044Z,3.92
2018-05-26T10:08:57.541Z,4.20
2018-05-26T10:11:24.998Z,9.80
2018-05-26T10:13:52.467Z,4.53
2018-05-26T10:16:20.736Z,7.45
2018-05-26T10:18:49.724Z,6.97
2018-05-26T10:21:17.185Z,12.27
2018-05-26T10:23:44.641Z,8.90
2018-05-26T10:26:12.118Z,4.33
2018-05-26T10:28:40.336Z,8.77
2018-05-26T10:31:07.828Z,6.17
2018-05-26T10:33:35.289Z,5.40
2018-05-26T10:36:02.793Z,6.40
2018-05-26T10:38:30.234Z,7.47
2018-05-26T10:40:59.926Z,6.12
2018-05-26T10:43:27.441Z,6.80
2018-05-26T10:46:06.697Z,6.23
2018-05-26T10:48:34.156Z,8.38
2018-05-26T10:51:01.627Z,7.83
2018-05-26T10:53:29.108Z,6.68
2018-05-26T10:55:56.665Z,9.02
2018-05-26T10:58:24.072Z,6.65
2018-05-26T11:00:51.553Z,5.22
2018-05-26T11:03:19.029Z,7.32
2018-05-26T11:05:47.443Z,9.27
2018-05-26T11:08:14.953Z,8.68
2018-05-26T11:10:42.404Z,5.90
2018-05-26T11:13:09.872Z,6.60
2018-05-26T11:15:38.128Z,5.32
2018-05-26T11:18:05.578Z,8.40
2018-05-26T11:20:33.082Z,4.15
2018-05-26T11:23:00.540Z,4.90
2018-05-26T11:25:28.047Z,4.65
2018-05-26T11:27:55.533Z,10.48
2018-05-26T11:30:23.825Z,5.62
2018-05-26T11:32:51.272Z,6.37
2018-05-26T11:35:19.529Z,4.97
2018-05-26T11:37:46.976Z,5.37
2018-05-26T11:40:14.508Z,3.67
2018-05-26T11:42:41.993Z,9.85
2018-05-26T11:45:09.472Z,7.18
2018-05-26T11:47:37.008Z,3.33
2018-05-26T11:50:04.468Z,11.27
2018-05-26T11:52:31.929Z,10.65
2018-05-26T11:54:59.409Z,6.95
2018-05-26T11:57:27.690Z,4.07
2018-05-26T11:59:55.145Z,4.20
2018-05-26T12:02:23.390Z,4.40
2018-05-26T12:04:50.867Z,8.00
2018-05-26T12:07:19.085Z,3.85
2018-05-26T12:09:46.591Z,4.87
2018-05-26T12:12:14.081Z,6.30
2018-05-26T12:14:41.574Z,4.90
2018-05-26T12:17:09.072Z,3.85
2018-05-26T12:19:36.528Z,6.72
2018-05-26T12:22:03.996Z,7.03
2018-05-26T12:24:32.276Z,7.65
2018-05-26T12:27:00.013Z,7.90
2018-05-26T12:29:27.504Z,3.90
2018-05-26T12:31:54.981Z,9.68
2018-05-26T12:34:22.439Z,5.60
2018-05-26T12:36:49.932Z,6.53
2018-05-26T12:39:17.402Z,5.78
2018-05-26T12:41:44.859Z,9.55
2018-05-26T12:44:12.340Z,4.40
2018-05-26T12:46:40.571Z,4.53
2018-05-26T12:49:08.099Z,7.72
2018-05-26T12:51:35.551Z,4.90
2018-05-26T12:54:03.041Z,6.75
2018-05-26T12:56:30.553Z,7.47
2018-05-26T12:58:58.032Z,6.62
2018-05-26T13:01:25.513Z,5.62
2018-05-26T13:03:52.996Z,8.30
2018-05-26T13:06:20.480Z,7.22
2018-05-26T13:08:47.949Z,6.95
2018-05-26T13:11:16.217Z,4.10
2018-05-26T13:13:44.441Z,6.30
2018-05-26T13:16:12.072Z,5.45
2018-05-26T13:18:39.576Z,7.28
2018-05-26T13:21:07.056Z,5.12
2018-05-26T13:23:35.272Z,5.05
2018-05-26T13:26:02.753Z,4.65
2018-05-26T13:28:30.257Z,3.47
2018-05-26T13:30:57.736Z,2.53
2018-05-26T13:33:25.201Z,4.00
2018-05-26T13:35:52.704Z,3.17
2018-05-26T13:38:20.165Z,3.37
2018-05-26T13:40:47.613Z,3.60
2018-05-26T13:43:15.109Z,3.22
2018-05-26T13:45:42.560Z,8.98
2018-05-26T13:48:10.033Z,6.28
2018-05-26T13:50:37.578Z,3.83
2018-05-26T13:53:05.029Z,3.53
2018-05-26T13:55:32.475Z,2.83
2018-05-26T13:57:59.961Z,7.00
2018-05-26T14:00:27.436Z,4.10
2018-05-26T14:02:55.655Z,4.85
2018-05-26T14:05:23.895Z,2.37
2018-05-26T14:07:51.369Z,4.18
2018-05-26T14:10:18.849Z,3.47
2018-05-26T14:12:47.068Z,5.10
2018-05-26T14:15:14.543Z,5.25
2018-05-26T14:17:41.991Z,5.30
2018-05-26T14:20:09.492Z,12.95
2018-05-26T14:22:37.718Z,2.33
2018-05-26T14:25:05.225Z,5.87
2018-05-26T14:27:32.673Z,2.53
2018-05-26T14:30:00.124Z,3.15
2018-05-26T14:32:27.604Z,3.37
2018-05-26T14:34:55.067Z,3.17
2018-05-26T14:37:22.536Z,3.78
2018-05-26T14:39:50.039Z,3.10
2018-05-26T14:42:17.476Z,3.25
2018-05-26T14:44:44.924Z,3.58
2018-05-26T14:47:12.432Z,5.53
2018-05-26T14:49:39.916Z,5.43
2018-05-26T14:52:07.376Z,5.40
2018-05-26T14:54:35.642Z,4.78
2018-05-26T14:57:03.858Z,5.80
2018-05-26T14:59:31.312Z,3.37
2018-05-26T15:01:58.788Z,2.58
2018-05-26T15:04:26.300Z,5.00
2018-05-26T15:06:53.792Z,3.20
2018-05-26T15:09:21.301Z,5.10
2018-05-26T15:11:49.560Z,3.35
2018-05-26T15:14:17.042Z,10.40
2018-05-26T15:16:44.532Z,3.73
2018-05-26T15:19:11.985Z,3.00
2018-05-26T15:21:39.468Z,2.87
2018-05-26T15:24:07.100Z,3.13
2018-05-26T15:26:34.559Z,5.10
2018-05-26T15:29:02.038Z,4.80
2018-05-26T15:31:29.492Z,5.33
2018-05-26T15:33:57.008Z,2.70
2018-05-26T15:36:25.324Z,3.97
2018-05-26T15:38:52.788Z,4.50
2018-05-26T15:41:20.293Z,3.90
2018-05-26T15:43:48.701Z,3.37
2018-05-26T15:46:16.182Z,3.03
2018-05-26T15:48:43.636Z,3.47
2018-05-26T15:51:11.116Z,6.37
2018-05-26T15:53:38.565Z,4.10
2018-05-26T15:56:06.065Z,3.73
2018-05-26T15:58:34.289Z,3.30
2018-05-26T16:01:01.738Z,4.23
2018-05-26T16:03:29.288Z,3.50
2018-05-26T16:05:57.043Z,6.23
2018-05-26T16:08:24.516Z,3.90
2018-05-26T16:10:51.971Z,7.07
2018-05-26T16:13:19.430Z,9.07
2018-05-26T16:15:46.905Z,6.57
2018-05-26T16:18:14.364Z,4.07
2018-05-26T16:20:43.592Z,3.47
2018-05-26T16:23:11.052Z,6.03
2018-05-26T16:25:38.540Z,8.73
2018-05-26T16:28:06.116Z,5.70
2018-05-26T16:30:33.584Z,4.67
2018-05-26T16:33:01.134Z,5.77
2018-05-26T16:35:28.642Z,5.17
2018-05-26T16:37:56.117Z,19.73
2018-05-26T16:40:23.609Z,10.83
2018-05-26T16:42:52.001Z,15.33
2018-05-26T16:45:19.502Z,6.00
2018-05-26T16:47:47.742Z,5.60
2018-05-26T16:50:15.240Z,6.20
2018-05-26T16:52:43.466Z,3.53
2018-05-26T16:55:10.964Z,8.90
2018-05-26T16:57:39.187Z,5.03
2018-05-26T17:00:06.656Z,5.90
2018-05-26T17:02:34.113Z,5.07
2018-05-26T17:05:01.613Z,3.60
2018-05-26T17:07:29.844Z,9.43
2018-05-26T17:09:57.300Z,29.97
2018-05-26T17:12:24.848Z,9.33
2018-05-26T17:14:52.325Z,11.40
2018-05-26T17:17:19.828Z,8.67
2018-05-26T17:19:48.074Z,12.37
2018-05-26T17:22:15.523Z,14.23
2018-05-26T17:24:42.981Z,4.23
2018-05-26T17:27:10.480Z,5.33
2018-05-26T17:29:37.940Z,4.27
2018-05-26T17:32:05.464Z,6.70
2018-05-26T17:34:32.908Z,7.73
2018-05-26T17:37:00.365Z,4.43
2018-05-26T17:39:27.851Z,5.13
2018-05-26T17:41:56.085Z,6.37
2018-05-26T17:44:23.528Z,8.87
2018-05-26T17:46:51.016Z,8.83
2018-05-26T17:49:18.469Z,6.20
2018-05-26T17:51:45.969Z,11.47
2018-05-26T17:54:13.456Z,6.07
2018-05-26T17:56:40.945Z,6.17
2018-05-26T17:59:08.433Z,6.53
2018-05-26T18:01:36.721Z,24.00
2018-05-26T18:04:04.201Z,4.57
2018-05-26T18:06:31.658Z,6.37
2018-05-26T18:08:59.140Z,6.40
2018-05-26T18:11:26.609Z,5.27
2018-05-26T18:13:54.080Z,10.10
2018-05-26T18:16:21.536Z,6.53
2018-05-26T18:18:49.050Z,3.80
2018-05-26T18:21:16.533Z,4.10
2018-05-26T18:23:44.776Z,5.90
2018-05-26T18:26:12.253Z,5.70
2018-05-26T18:28:39.720Z,6.80
2018-05-26T18:31:07.196Z,6.27
2018-05-26T18:33:34.644Z,5.37
2018-05-26T18:36:02.144Z,4.97
2018-05-26T18:38:29.652Z,4.80
2018-05-26T18:40:57.110Z,8.83
2018-05-26T18:43:24.589Z,7.27
2018-05-26T18:45:52.848Z,6.87
2018-05-26T18:48:20.316Z,7.50
2018-05-26T18:50:47.792Z,8.80
2018-05-26T18:53:16.136Z,4.87
2018-05-26T18:55:43.605Z,8.80
2018-05-26T18:58:11.084Z,4.77
2018-05-26T19:00:38.556Z,4.77
2018-05-26T19:03:06.021Z,6.27
2018-05-26T19:05:34.092Z,6.20
2018-05-26T19:08:01.562Z,7.83
2018-05-26T19:10:29.053Z,4.87
2018-05-26T19:12:56.500Z,4.60
2018-05-26T19:15:23.982Z,5.07
2018-05-26T19:17:51.453Z,4.03
2018-05-26T19:20:19.700Z,8.83
2018-05-26T19:22:47.172Z,6.43
2018-05-26T19:25:15.425Z,6.73
2018-05-26T19:27:42.892Z,5.00
2018-05-26T19:30:10.385Z,6.37
2018-05-26T19:32:37.831Z,8.23
2018-05-26T19:35:06.066Z,5.30
2018-05-26T19:37:33.544Z,5.47
2018-05-26T19:40:01.065Z,5.10
2018-05-26T19:42:28.565Z,4.87
2018-05-26T19:44:56.004Z,6.33
2018-05-26T19:47:23.525Z,4.17
2018-05-26T19:49:51.070Z,7.77
2018-05-26T19:52:19.529Z,6.33
2018-05-26T19:54:47.992Z,4.27
2018-05-26T19:57:16.258Z,4.57
2018-05-26T19:59:43.761Z,3.90
2018-05-26T20:02:11.985Z,4.77
2018-05-26T20:04:39.464Z,3.93
2018-05-26T20:07:06.940Z,8.97
2018-05-26T20:09:35.169Z,5.57
2018-05-26T20:12:02.646Z,4.97
2018-05-26T20:14:30.881Z,7.40
2018-05-26T20:16:58.344Z,6.67
2018-05-26T20:19:25.800Z,5.63
2018-05-26T20:21:54.589Z,8.83
2018-05-26T20:24:22.098Z,5.37
2018-05-26T20:26:49.553Z,5.63
2018-05-26T20:29:16.997Z,6.00
2018-05-26T20:31:44.477Z,6.03
2018-05-26T20:34:11.981Z,5.13
2018-05-26T20:36:39.461Z,8.40
2018-05-26T20:39:06.941Z,5.43
2018-05-26T20:41:35.218Z,4.80
2018-05-26T20:44:02.685Z,4.73
2018-05-26T20:46:30.932Z,6.30
2018-05-26T20:48:58.408Z,4.73
2018-05-26T20:51:25.876Z,6.00
2018-05-26T20:53:54.104Z,4.73
2018-05-26T20:56:21.590Z,6.00
2018-05-26T20:58:49.070Z,5.50
2018-05-26T21:01:16.595Z,5.60
2018-05-26T21:03:44.049Z,5.27
2018-05-26T21:06:11.536Z,7.90
2018-05-26T21:08:39.042Z,5.90
2018-05-26T21:11:06.497Z,6.27
2018-05-26T21:13:33.956Z,11.20
2018-05-26T21:16:01.463Z,8.93
2018-05-26T21:18:29.741Z,9.40
2018-05-26T21:20:57.964Z,5.77
2018-05-26T21:23:25.424Z,5.97
2018-05-26T21:25:52.903Z,11.30
2018-05-26T21:28:20.361Z,11.03
2018-05-26T21:30:48.612Z,7.17
2018-05-26T21:33:16.828Z,7.17
2018-05-26T21:35:44.308Z,11.13
2018-05-26T21:38:11.773Z,8.40
2018-05-26T21:40:39.224Z,8.17
2018-05-26T21:43:06.718Z,9.47
2018-05-26T21:45:34.261Z,8.03
2018-05-26T21:48:01.740Z,10.70
2018-05-26T21:50:29.196Z,9.10
2018-05-26T21:52:56.676Z,10.33
2018-05-26T21:55:24.136Z,12.57
2018-05-26T21:57:51.617Z,13.23
2018-05-26T22:00:19.844Z,11.27
2018-05-26T22:02:47.329Z,8.80
2018-05-26T22:05:14.808Z,14.57
2018-05-26T22:07:43.085Z,10.97
2018-05-26T22:10:12.185Z,10.20
2018-05-26T22:12:39.665Z,9.83
2018-05-26T22:15:07.148Z,10.30
2018-05-26T22:17:34.720Z,10.37
2018-05-26T22:20:02.206Z,11.10
2018-05-26T22:22:29.660Z,11.43
2018-05-26T22:24:57.155Z,10.57
2018-05-26T22:27:25.376Z,10.23
2018-05-26T22:29:52.864Z,14.20
2018-05-26T22:32:21.088Z,13.77
2018-05-26T22:34:48.579Z,13.60
2018-05-26T22:37:16.080Z,10.13
2018-05-26T22:39:43.576Z,13.00
2018-05-26T22:42:11.047Z,11.20
2018-05-26T22:44:38.544Z,12.03
2018-05-26T22:47:06.020Z,13.13
2018-05-26T22:49:33.497Z,14.03
2018-05-26T22:52:00.956Z,15.77
2018-05-26T22:54:28.436Z,11.27
2018-05-26T22:56:55.892Z,12.30
2018-05-26T22:59:24.145Z,10.20
2018-05-26T23:01:51.640Z,11.83
2018-05-26T23:04:19.108Z,11.20
2018-05-26T23:06:46.659Z,10.30
2018-05-26T23:09:14.151Z,10.57
2018-05-26T23:11:41.627Z,10.07
2018-05-26T23:14:09.073Z,11.43
2018-05-26T23:16:36.558Z,13.70
2018-05-26T23:19:04.021Z,12.60
2018-05-26T23:21:31.514Z,10.07
2018-05-26T23:23:58.965Z,12.03
2018-05-26T23:26:26.446Z,14.33
2018-05-26T23:28:53.915Z,13.37
2018-05-26T23:31:21.400Z,16.67
2018-05-26T23:33:48.867Z,15.00
2018-05-26T23:36:16.329Z,17.67
2018-05-26T23:38:44.613Z,14.47
2018-05-26T23:41:12.839Z,16.73
2018-05-26T23:43:41.064Z,16.00
2018-05-26T23:46:09.321Z,22.17
2018-05-26T23:48:36.820Z,18.93
2018-05-26T23:51:04.256Z,20.00
2018-05-26T23:53:31.714Z,21.57
2018-05-26T23:55:59.196Z,23.47
2018-05-26T23:58:26.657Z,23.37
